KSCR/SCR METAR and TAF weather

Enter ICAO airport designator
Station Type Date Time Source
KSCR METAR 2021/05/14 19:15 UTC NOAA

KSCR 141915Z AUTO 34003KT 10SM OVC110 20/02 A3026 RMK AO2 T02010023


Station Type Date Time Source
KSCR Decoded METAR 2021/05/14 19:15 UTC NOAA

Station name not available
May 14, 2021 - 03:15 PM EDT / 2021.05.14 1915 UTC
Wind: from the NNW (340 degrees) at 3 MPH (3 KT):0
Visibility: 10 mile(s):0
Sky conditions: overcast
Temperature: 68.2 F (20.1 C)
Dew Point: 36.1 F (2.3 C)
Relative Humidity: 30%
Pressure (altimeter): 30.26 in. Hg (1024 hPa)
ob: KSCR 141915Z AUTO 34003KT 10SM OVC110 20/02 A3026 RMK AO2 T02010023
cycle: 19

Station Type Date Time Source
KSCR TAF UTC NOAA

Error!

Example: see airport list